Time;durP1;ratioP1;P1;durP2;ratioP2;P2;SDS_P1;SDS_P2;PMS_P1;PMS_P2;Temp;Humidity;BMP_temperature;BMP_pressure;BME280_temperature;BME280_humidity;BME280_pressure;Samples;Min_cycle;Max_cycle;Signal;HPM_P1;HPM_P2
2023/10/01 00:01:12;;;;;;;1.03;0.77;;;;;;;18.25;65.69;101175.41;5093456;28;20269;-81
2023/10/01 00:03:38;;;;;;;0.53;0.53;;;;;;;17.90;65.92;101161.19;5093864;28;20730;-81
2023/10/01 00:06:04;;;;;;;2.10;0.87;;;;;;;17.99;66.47;101167.44;5094592;28;20713;-81
2023/10/01 00:08:29;;;;;;;18.70;1.10;;;;;;;18.03;66.36;101155.31;5094271;28;20287;-81
2023/10/01 00:10:55;;;;;;;0.20;0.20;;;;;;;18.21;66.25;101177.22;5093612;28;20197;-81
2023/10/01 00:13:21;;;;;;;1.47;1.37;;;;;;;18.06;66.21;101140.81;5095131;28;20217;-81
2023/10/01 00:15:49;;;;;;;2.13;1.23;;;;;;;18.08;66.17;101159.81;5094360;28;20186;-81
2023/10/01 00:18:15;;;;;;;1.20;1.13;;;;;;;17.91;66.58;101160.84;5095119;28;20174;-80
2023/10/01 00:20:40;;;;;;;5.30;0.73;;;;;;;17.82;67.26;101149.91;5093130;28;20267;-81
2023/10/01 00:23:06;;;;;;;0.40;0.40;;;;;;;17.83;67.20;101148.75;5094029;28;20233;-81
2023/10/01 00:25:38;;;;;;;2.60;0.93;;;;;;;17.80;67.50;101145.88;5093136;28;20224;-80
2023/10/01 00:28:04;;;;;;;1.20;1.00;;;;;;;17.84;67.48;101153.13;5095145;28;20658;-80
2023/10/01 00:30:31;;;;;;;6.40;0.70;;;;;;;17.90;67.27;101141.81;5093366;28;20314;-81
2023/10/01 00:32:56;;;;;;;7.80;2.00;;;;;;;17.89;67.24;101143.78;5093887;28;20194;-81
2023/10/01 00:35:22;;;;;;;1.50;0.83;;;;;;;17.82;67.06;101144.38;5094877;28;20178;-81
2023/10/01 00:37:47;;;;;;;4.53;0.97;;;;;;;17.81;67.28;101147.47;5095070;28;20581;-81
2023/10/01 00:40:17;;;;;;;0.80;0.80;;;;;;;17.86;67.27;101152.78;5093448;28;20184;-81
2023/10/01 00:42:42;;;;;;;0.57;0.50;;;;;;;17.90;67.34;101163.94;5092732;28;20205;-81
2023/10/01 00:45:13;;;;;;;0.33;0.33;;;;;;;17.74;67.87;101161.84;5092869;28;20181;-81
2023/10/01 00:47:41;;;;;;;0.60;0.60;;;;;;;17.80;67.95;101166.03;5094045;28;20265;-80
2023/10/01 00:50:11;;;;;;;1.37;1.27;;;;;;;17.91;67.89;101158.06;5091823;28;20208;-80
2023/10/01 00:52:37;;;;;;;2.87;1.40;;;;;;;17.61;68.23;101151.06;5093063;28;20660;-80
2023/10/01 00:55:05;;;;;;;1.80;0.77;;;;;;;17.57;68.12;101142.66;5093450;28;20206;-80
2023/10/01 00:57:30;;;;;;;0.87;0.77;;;;;;;17.76;68.03;101156.78;5093517;28;20178;-80
2023/10/01 00:59:55;;;;;;;1.70;1.10;;;;;;;17.56;68.35;101143.81;5091709;28;20525;-81
2023/10/01 01:02:22;;;;;;;0.97;0.97;;;;;;;17.65;68.40;101155.59;5091836;28;20211;-80
2023/10/01 01:05:05;;;;;;;0.47;0.40;;;;;;;17.72;68.05;101153.09;5093394;28;20213;-81
2023/10/01 01:07:32;;;;;;;0.40;0.40;;;;;;;17.75;67.94;101149.63;5093879;28;20184;-80
2023/10/01 01:09:57;;;;;;;1.17;1.07;;;;;;;17.72;68.00;101142.03;5091898;28;20211;-80
2023/10/01 01:12:24;;;;;;;0.83;0.50;;;;;;;17.69;68.15;101128.09;5092805;28;20178;-80
2023/10/01 01:14:49;;;;;;;1.73;1.63;;;;;;;17.53;68.26;101127.91;5092177;28;20217;-80
2023/10/01 01:17:14;;;;;;;1.97;1.20;;;;;;;17.65;67.93;101138.19;5092114;28;20189;-80
2023/10/01 01:19:42;;;;;;;4.67;1.60;;;;;;;17.78;67.72;101150.91;5092057;28;20224;-80
2023/10/01 01:22:15;;;;;;;0.73;0.73;;;;;;;17.76;67.77;101126.38;5091512;28;20194;-80
2023/10/01 01:24:40;;;;;;;0.50;0.50;;;;;;;17.77;67.98;101141.00;5093652;28;20194;-80
2023/10/01 01:27:06;;;;;;;8.07;0.83;;;;;;;17.66;68.00;101137.84;5093209;28;20261;-79
2023/10/01 01:29:40;;;;;;;0.53;0.37;;;;;;;17.72;68.16;101144.00;5092322;28;20312;-79
2023/10/01 01:32:13;;;;;;;0.30;0.30;;;;;;;17.79;67.78;101141.47;5091820;28;20212;-79
2023/10/01 01:34:43;;;;;;;0.77;0.77;;;;;;;17.88;67.50;101127.53;5093355;28;20204;-81
2023/10/01 01:37:19;;;;;;;0.93;0.70;;;;;;;17.82;67.43;101122.25;5092319;28;20522;-80
2023/10/01 01:39:48;;;;;;;0.70;0.70;;;;;;;17.79;67.63;101147.81;5093050;28;20173;-80
2023/10/01 01:42:25;;;;;;;0.80;0.70;;;;;;;17.82;67.33;101140.78;5092825;28;20178;-80
2023/10/01 01:47:40;;;;;;;2.03;1.90;;;;;;;17.63;67.92;101132.19;5093550;28;20632;-81
2023/10/01 01:50:18;;;;;;;0.47;0.47;;;;;;;17.70;68.14;101144.34;5091771;28;20274;-80
2023/10/01 01:52:49;;;;;;;1.50;0.60;;;;;;;17.76;68.23;101154.00;5092562;28;20285;-80
2023/10/01 01:55:29;;;;;;;1.17;1.17;;;;;;;17.72;68.19;101150.31;5091669;28;20181;-79
2023/10/01 01:58:15;;;;;;;0.40;0.40;;;;;;;17.81;68.03;101144.72;5093158;28;20602;-81
2023/10/01 02:03:26;;;;;;;0.53;0.53;;;;;;;17.78;68.07;101121.31;5095188;28;20248;-81
2023/10/01 02:05:52;;;;;;;0.40;0.40;;;;;;;17.66;68.18;101115.75;5095254;28;20644;-80
2023/10/01 02:08:24;;;;;;;0.93;0.83;;;;;;;17.68;68.12;101109.88;5094615;28;20607;-80
2023/10/01 02:10:51;;;;;;;0.77;0.77;;;;;;;17.65;68.41;101116.06;5093696;28;20196;-81
2023/10/01 02:13:17;;;;;;;2.27;1.33;;;;;;;17.71;68.14;101134.91;5092693;28;20279;-81
2023/10/01 02:15:43;;;;;;;0.87;0.70;;;;;;;17.79;67.95;101122.94;5092937;28;20193;-80
2023/10/01 02:18:09;;;;;;;0.53;0.53;;;;;;;17.78;68.10;101121.31;5093851;28;20188;-81
2023/10/01 02:20:36;;;;;;;2.43;1.43;;;;;;;17.84;67.80;101127.44;5092585;28;20239;-80
2023/10/01 02:23:04;;;;;;;1.07;0.97;;;;;;;17.76;67.65;101112.56;5093819;28;20205;-80
2023/10/01 02:25:43;;;;;;;2.13;1.60;;;;;;;17.80;67.69;101113.50;5094030;28;20200;-80
2023/10/01 02:28:14;;;;;;;0.10;0.10;;;;;;;17.78;67.76;101118.53;5093675;28;20174;-80
2023/10/01 02:30:41;;;;;;;1.70;0.83;;;;;;;17.97;67.30;101114.44;5093084;28;20230;-80
2023/10/01 02:33:17;;;;;;;0.30;0.30;;;;;;;17.99;67.37;101128.72;5092183;28;20214;-80
2023/10/01 02:35:48;;;;;;;0.60;0.60;;;;;;;18.02;67.15;101122.50;5092002;28;20172;-80
2023/10/01 02:41:02;;;;;;;0.57;0.40;;;;;;;18.11;67.00;101134.25;5092812;28;20188;-81
2023/10/01 02:43:36;;;;;;;1.37;1.27;;;;;;;18.02;66.68;101115.00;5091444;28;20206;-81
2023/10/01 02:46:11;;;;;;;0.90;0.90;;;;;;;17.93;67.25;101117.06;5091786;28;20186;-80
2023/10/01 02:48:40;;;;;;;0.17;0.17;;;;;;;18.09;66.94;101114.44;5093766;28;20177;-80
2023/10/01 02:51:14;;;;;;;2.27;1.63;;;;;;;17.97;67.04;101100.59;5095213;28;20186;-80
2023/10/01 02:53:42;;;;;;;0.00;0.00;;;;;;;17.96;67.28;101099.00;5095296;28;20205;-80
2023/10/01 02:56:12;;;;;;;8.33;0.57;;;;;;;18.06;66.73;101101.28;5095653;28;20185;-81
2023/10/01 02:58:44;;;;;;;0.20;0.20;;;;;;;17.94;67.18;101104.03;5095327;28;20287;-79
2023/10/01 03:01:13;;;;;;;0.87;0.60;;;;;;;17.98;67.29;101103.03;5096098;28;20181;-81
2023/10/01 03:03:39;;;;;;;8.77;0.97;;;;;;;17.93;66.84;101102.44;5096381;28;20408;-81
2023/10/01 03:06:09;;;;;;;1.23;0.57;;;;;;;17.82;67.28;101102.91;5096892;28;20189;-81
2023/10/01 03:11:18;;;;;;;0.17;0.13;;;;;;;17.93;67.59;101096.91;5095699;28;20175;-80
2023/10/01 03:13:46;;;;;;;0.80;0.80;;;;;;;17.90;67.55;101083.78;5096312;28;20451;-81
2023/10/01 03:18:56;;;;;;;0.83;0.80;;;;;;;17.91;67.61;101093.69;5096220;28;20267;-80
2023/10/01 03:22:15;;;;;;;0.63;0.63;;;;;;;17.92;67.29;101098.06;5095437;28;20185;-79
2023/10/01 03:24:25;;;;;;;1.27;0.50;;;;;;;17.80;67.62;101096.09;5095755;28;20227;-80
2023/10/01 03:26:50;;;;;;;1.87;1.77;;;;;;;17.75;67.67;101091.59;5096277;28;20177;-80
2023/10/01 03:29:21;;;;;;;1.70;0.70;;;;;;;17.82;67.62;101097.38;5093578;28;20227;-81
2023/10/01 03:31:53;;;;;;;1.10;1.00;;;;;;;17.52;68.19;101087.63;5075379;28;20170;-80
2023/10/01 03:34:31;;;;;;;0.83;0.83;;;;;;;17.49;68.51;101077.25;5074542;28;20203;-81
2023/10/01 03:36:58;;;;;;;0.17;0.17;;;;;;;17.93;67.97;101110.72;5074593;28;20539;-80
2023/10/01 03:39:25;;;;;;;0.90;0.80;;;;;;;18.00;67.40;101102.69;5074070;28;20184;-81
2023/10/01 03:42:13;;;;;;;0.87;0.40;;;;;;;18.07;67.07;101100.94;5067604;28;20175;-80
2023/10/01 03:47:23;;;;;;;8.90;2.10;;;;;;;18.08;66.55;101104.50;5075583;28;20185;-81
2023/10/01 03:49:54;;;;;;;2.13;2.00;;;;;;;17.90;66.92;101101.16;5075268;28;20178;-79
2023/10/01 03:52:21;;;;;;;2.60;1.40;;;;;;;17.92;67.27;101103.56;5074777;28;20185;-79
2023/10/01 03:57:29;;;;;;;1.90;1.60;;;;;;;17.71;67.14;101085.16;5075117;28;20547;-80
2023/10/01 03:59:57;;;;;;;2.83;0.60;;;;;;;17.90;67.07;101108.66;5074529;28;20174;-80
2023/10/01 04:02:42;;;;;;;0.30;0.30;;;;;;;17.92;67.41;101112.69;5073170;28;20273;-80
2023/10/01 04:05:31;;;;;;;1.33;0.83;;;;;;;17.91;67.29;101110.25;5073583;28;20213;-80
2023/10/01 04:08:06;;;;;;;1.80;1.30;;;;;;;17.83;67.40;101100.94;5075145;28;20175;-79
2023/10/01 04:10:31;;;;;;;0.33;0.33;;;;;;;17.55;67.96;101082.22;5072998;28;20665;-80
2023/10/01 04:13:11;;;;;;;0.80;0.80;;;;;;;17.53;68.06;101087.28;5072260;28;20206;-79
2023/10/01 04:15:41;;;;;;;1.80;1.70;;;;;;;17.45;68.57;101084.59;5073917;28;20177;-79
2023/10/01 04:20:48;;;;;;;0.50;0.50;;;;;;;17.76;67.72;101095.16;5072929;28;20201;-78
2023/10/01 04:23:24;;;;;;;1.23;1.13;;;;;;;17.62;67.73;101095.47;5072081;28;20205;-78
2023/10/01 04:25:54;;;;;;;0.40;0.33;;;;;;;17.70;67.68;101102.88;5073408;28;20204;-78
2023/10/01 04:28:20;;;;;;;0.67;0.67;;;;;;;17.71;67.49;101093.44;5071961;28;20289;-79
2023/10/01 04:30:51;;;;;;;0.20;0.20;;;;;;;17.91;67.41;101108.31;5071830;28;20688;-80
2023/10/01 04:33:17;;;;;;;1.70;0.60;;;;;;;17.67;67.79;101092.50;5073189;28;20210;-80
2023/10/01 04:35:51;;;;;;;0.50;0.50;;;;;;;17.73;68.20;101113.25;5074395;28;20545;-78
2023/10/01 04:38:19;;;;;;;0.30;0.30;;;;;;;17.82;67.87;101102.91;5072066;28;20182;-78
2023/10/01 04:40:46;;;;;;;4.67;0.87;;;;;;;17.80;67.73;101087.81;5072834;28;20236;-79
2023/10/01 04:43:15;;;;;;;1.97;1.77;;;;;;;17.61;68.04;101074.50;5076618;28;20665;-80
2023/10/01 04:45:44;;;;;;;8.40;0.40;;;;;;;17.64;68.22;101078.53;5074644;28;20182;-80
2023/10/01 04:48:16;;;;;;;0.10;0.10;;;;;;;17.57;68.55;101072.78;5074568;28;20178;-80
2023/10/01 04:50:46;;;;;;;0.83;0.50;;;;;;;17.63;68.77;101083.25;5073710;28;20197;-79
2023/10/01 04:53:13;;;;;;;1.13;1.13;;;;;;;17.43;69.21;101087.72;5073521;28;20224;-78
2023/10/01 04:55:42;;;;;;;0.60;0.60;;;;;;;17.52;69.25;101085.66;5074552;28;20186;-79
2023/10/01 04:58:15;;;;;;;0.53;0.53;;;;;;;17.55;69.25;101086.94;5075132;28;20202;-79
2023/10/01 05:00:45;;;;;;;1.03;1.03;;;;;;;17.43;69.32;101089.66;5072994;28;20212;-79
2023/10/01 05:03:14;;;;;;;4.83;0.70;;;;;;;17.55;69.25;101098.78;5073546;28;20205;-80
2023/10/01 05:05:42;;;;;;;0.00;0.00;;;;;;;17.68;68.89;101101.59;5073330;28;20214;-79
2023/10/01 05:08:08;;;;;;;1.67;1.10;;;;;;;17.65;68.74;101092.03;5073619;28;20259;-80
2023/10/01 05:10:51;;;;;;;0.23;0.23;;;;;;;17.61;68.47;101090.28;5073190;28;20182;-80
2023/10/01 05:13:20;;;;;;;0.17;0.17;;;;;;;17.68;68.89;101099.66;5073116;28;20206;-79
2023/10/01 05:15:49;;;;;;;0.70;0.70;;;;;;;17.35;69.26;101087.78;5074508;28;20258;-80
2023/10/01 05:18:16;;;;;;;0.30;0.30;;;;;;;17.57;69.05;101100.41;5072330;28;20560;-80
2023/10/01 05:20:41;;;;;;;0.30;0.30;;;;;;;17.62;68.96;101098.22;5072079;28;20668;-80
2023/10/01 05:23:07;;;;;;;2.67;0.30;;;;;;;17.59;69.20;101096.16;5074308;28;20228;-79
2023/10/01 05:25:32;;;;;;;2.47;1.43;;;;;;;17.41;69.55;101089.22;5073899;28;20257;-80
2023/10/01 05:27:59;;;;;;;0.70;0.70;;;;;;;17.27;70.10;101091.47;5073834;28;20206;-80
2023/10/01 05:30:39;;;;;;;2.77;2.03;;;;;;;17.20;70.10;101086.47;5073444;28;20232;-80
2023/10/01 05:33:06;;;;;;;0.87;0.77;;;;;;;17.41;70.23;101108.53;5072136;28;20222;-80
2023/10/01 05:35:44;;;;;;;1.80;1.20;;;;;;;17.40;70.41;101109.69;5073352;28;20211;-81
2023/10/01 05:38:10;;;;;;;7.40;2.30;;;;;;;17.10;70.65;101082.22;5073266;28;20189;-79
2023/10/01 05:40:37;;;;;;;1.43;1.23;;;;;;;17.29;70.39;101100.22;5072722;28;20559;-78
2023/10/01 05:43:15;;;;;;;0.00;0.00;;;;;;;17.27;70.75;101095.03;5074031;28;20198;-80
2023/10/01 05:45:52;;;;;;;0.27;0.27;;;;;;;17.47;70.71;101113.50;5073458;28;20186;-80
2023/10/01 05:48:23;;;;;;;0.00;0.00;;;;;;;17.58;70.28;101118.59;5074495;28;20204;-80
2023/10/01 05:50:53;;;;;;;0.83;0.83;;;;;;;17.40;70.38;101113.25;5071471;28;20182;-80
2023/10/01 05:53:18;;;;;;;1.00;0.90;;;;;;;17.33;70.51;101099.19;5073082;28;20692;-82
2023/10/01 05:55:44;;;;;;;0.37;0.37;;;;;;;17.54;70.10;101108.22;5073212;28;20190;-79
2023/10/01 05:58:13;;;;;;;1.67;1.43;;;;;;;17.74;69.55;101128.69;5071859;28;20602;-80
2023/10/01 06:00:44;;;;;;;0.87;0.87;;;;;;;17.89;69.04;101123.63;5072365;28;20261;-80
2023/10/01 06:03:14;;;;;;;0.30;0.30;;;;;;;18.09;68.87;101136.56;5071894;28;20555;-80
2023/10/01 06:05:43;;;;;;;2.60;1.53;;;;;;;18.09;68.53;101117.22;5073267;28;20178;-80
2023/10/01 06:08:18;;;;;;;0.10;0.10;;;;;;;18.26;68.35;101132.75;5072709;28;20186;-80
2023/10/01 06:11:05;;;;;;;1.00;1.00;;;;;;;18.10;68.57;101118.81;5072423;28;20177;-80
2023/10/01 06:13:31;;;;;;;2.70;1.33;;;;;;;18.28;68.57;101147.03;5072818;28;20233;-80
2023/10/01 06:15:58;;;;;;;1.13;1.13;;;;;;;18.44;67.45;101140.47;5072640;28;20182;-79
2023/10/01 06:18:26;;;;;;;0.50;0.50;;;;;;;18.66;67.17;101144.75;5072686;28;20237;-80
2023/10/01 06:20:53;;;;;;;0.00;0.00;;;;;;;18.78;67.13;101159.69;5071868;28;20182;-82
2023/10/01 06:23:19;;;;;;;1.07;0.80;;;;;;;18.46;66.96;101122.69;5073725;28;20205;-80
2023/10/01 06:25:51;;;;;;;0.23;0.23;;;;;;;18.83;66.71;101142.84;5075170;28;20182;-80
2023/10/01 06:28:20;;;;;;;0.53;0.53;;;;;;;18.88;65.88;101126.78;5076998;28;20261;-80
2023/10/01 06:30:46;;;;;;;0.00;0.00;;;;;;;19.17;66.05;101155.31;5076268;28;20182;-79
2023/10/01 06:33:26;;;;;;;1.13;1.03;;;;;;;18.84;65.93;101112.03;5074839;28;20261;-78
2023/10/01 06:38:38;;;;;;;1.20;1.20;;;;;;;18.97;65.69;101119.16;5076878;28;20197;-81
2023/10/01 06:41:06;;;;;;;0.50;0.50;;;;;;;18.82;66.56;101111.59;5074465;28;20232;-80
2023/10/01 06:43:44;;;;;;;1.90;1.50;;;;;;;18.82;66.70;101122.66;5074731;28;20213;-79
2023/10/01 06:46:11;;;;;;;2.27;1.60;;;;;;;18.59;66.64;101100.19;5076100;28;20188;-80
2023/10/01 06:48:39;;;;;;;0.37;0.30;;;;;;;18.52;67.33;101094.47;5076075;28;20679;-80
2023/10/01 06:51:05;;;;;;;0.57;0.57;;;;;;;18.64;67.12;101108.28;5075582;28;20179;-80
2023/10/01 06:53:45;;;;;;;0.87;0.87;;;;;;;18.66;67.17;101103.22;5075805;28;20662;-80
2023/10/01 06:56:14;;;;;;;1.63;1.20;;;;;;;18.75;67.08;101100.28;5076220;28;20178;-80
2023/10/01 06:58:40;;;;;;;2.83;2.13;;;;;;;18.61;66.97;101095.09;5075894;28;20213;-80
2023/10/01 07:01:05;;;;;;;0.60;0.30;;;;;;;18.37;67.29;101081.31;5073840;28;20186;-80
2023/10/01 07:03:30;;;;;;;3.97;0.60;;;;;;;18.50;67.37;101112.53;5075727;28;20213;-78
2023/10/01 07:06:01;;;;;;;1.63;1.53;;;;;;;18.61;67.55;101116.44;5075770;28;20706;-79
2023/10/01 07:08:37;;;;;;;0.10;0.10;;;;;;;19.10;66.85;101147.63;5075539;28;20194;-82
2023/10/01 07:11:11;;;;;;;1.87;1.17;;;;;;;19.14;66.02;101145.75;5073750;28;20186;-80
2023/10/01 07:13:38;;;;;;;1.80;1.30;;;;;;;19.32;65.22;101138.75;5075554;28;20209;-80
2023/10/01 07:16:03;;;;;;;0.00;0.00;;;;;;;19.54;65.00;101154.03;5075604;28;20182;-78
2023/10/01 07:18:29;;;;;;;0.33;0.33;;;;;;;19.56;65.16;101151.72;5074144;28;20273;-80
2023/10/01 07:21:00;;;;;;;1.60;1.03;;;;;;;19.60;64.63;101144.28;5073560;28;20185;-79
2023/10/01 07:23:26;;;;;;;1.00;0.83;;;;;;;19.76;64.42;101149.84;5074510;28;20204;-79
2023/10/01 07:26:01;;;;;;;2.17;1.00;;;;;;;19.88;64.12;101155.31;5076531;28;20186;-79
2023/10/01 07:28:26;;;;;;;4.13;1.30;;;;;;;19.66;64.46;101141.25;5078794;28;20655;-79
2023/10/01 07:30:56;;;;;;;0.50;0.50;;;;;;;19.79;63.91;101146.34;5075419;28;20233;-80
2023/10/01 07:33:28;;;;;;;1.93;1.27;;;;;;;20.01;63.77;101150.50;5075886;28;20214;-80
2023/10/01 07:35:59;;;;;;;1.57;1.13;;;;;;;19.61;63.71;101122.91;5074364;28;20658;-79
2023/10/01 07:38:26;;;;;;;0.00;0.00;;;;;;;19.82;64.23;101147.63;5074398;28;20224;-78
2023/10/01 07:40:57;;;;;;;3.40;1.30;;;;;;;19.45;64.60;101128.41;5073838;28;20210;-79
2023/10/01 07:43:30;;;;;;;1.27;1.17;;;;;;;19.60;64.42;101144.28;5072694;28;20206;-79
2023/10/01 07:45:57;;;;;;;13.23;1.03;;;;;;;19.32;64.55;101119.34;5072890;28;20186;-78
2023/10/01 07:48:24;;;;;;;15.47;0.60;;;;;;;19.33;65.10;101131.22;5072734;28;20188;-78
2023/10/01 07:50:51;;;;;;;1.37;0.80;;;;;;;19.44;65.09;101142.63;5072449;28;20186;-78
2023/10/01 07:53:18;;;;;;;1.70;1.40;;;;;;;19.27;64.80;101127.91;5072498;28;20218;-79
2023/10/01 07:55:46;;;;;;;1.23;0.60;;;;;;;19.90;64.08;101152.97;5072994;28;20186;-79
2023/10/01 07:58:25;;;;;;;0.60;0.60;;;;;;;19.72;64.25;101148.94;5072862;28;20210;-79
2023/10/01 08:00:58;;;;;;;1.57;1.47;;;;;;;19.62;64.54;101163.34;5073501;28;20582;-79
2023/10/01 08:05:50;;;;;;;1.27;1.27;;;;;;;19.76;64.12;101144.28;5074203;28;20239;-79
2023/10/01 08:08:35;;;;;;;0.43;0.43;;;;;;;19.66;64.21;101133.72;5073970;28;20190;-79
2023/10/01 08:11:02;;;;;;;2.10;1.90;;;;;;;19.77;64.25;101143.13;5073585;28;20610;-79
2023/10/01 08:13:30;;;;;;;0.83;0.63;;;;;;;20.15;63.49;101166.69;5073576;28;20221;-78
2023/10/01 08:15:58;;;;;;;8.90;0.80;;;;;;;20.18;63.22;101152.91;5072686;28;20224;-79
2023/10/01 08:18:34;;;;;;;1.47;1.37;;;;;;;20.56;62.54;101162.56;5073500;28;20186;-81
2023/10/01 08:21:02;;;;;;;1.50;0.80;;;;;;;20.35;62.86;101156.47;5073200;28;20221;-79
2023/10/01 08:23:33;;;;;;;3.37;1.00;;;;;;;20.27;62.55;101144.41;5072262;28;20210;-79
2023/10/01 08:28:55;;;;;;;0.80;0.80;;;;;;;20.09;62.88;101140.38;5073858;28;20212;-79
2023/10/01 08:31:43;;;;;;;2.27;1.30;;;;;;;20.24;63.57;101164.50;5072093;28;20186;-79
2023/10/01 08:34:22;;;;;;;6.43;1.53;;;;;;;20.11;63.72;101154.72;5073158;28;20602;-81
2023/10/01 08:36:58;;;;;;;1.97;0.60;;;;;;;20.19;63.77;101164.81;5072357;28;20190;-79
2023/10/01 08:42:12;;;;;;;2.07;1.07;;;;;;;20.40;63.78;101168.09;5073487;28;20259;-80
2023/10/01 08:44:47;;;;;;;0.47;0.47;;;;;;;20.67;63.16;101176.66;5074287;28;20190;-80
2023/10/01 08:47:25;;;;;;;3.17;1.30;;;;;;;20.47;63.38;101161.94;5073134;28;20663;-79
2023/10/01 08:49:52;;;;;;;0.80;0.80;;;;;;;20.50;63.05;101166.75;5071967;28;20182;-79
2023/10/01 08:52:30;;;;;;;0.37;0.37;;;;;;;20.75;62.24;101173.69;5072732;28;20183;-79
2023/10/01 08:54:56;;;;;;;1.50;1.40;;;;;;;20.69;62.38;101180.72;5071598;28;20213;-80
2023/10/01 08:57:36;;;;;;;1.50;1.40;;;;;;;20.19;63.72;101157.28;5073733;28;20266;-80
2023/10/01 09:00:20;;;;;;;1.10;1.10;;;;;;;19.98;64.30;101158.72;5072131;28;20692;-80
2023/10/01 09:02:51;;;;;;;2.60;1.67;;;;;;;19.86;64.49;101152.09;5071387;28;20178;-81
2023/10/01 09:05:25;;;;;;;1.60;1.50;;;;;;;19.80;64.82;101144.38;5072676;28;20175;-81
2023/10/01 09:10:49;;;;;;;1.57;1.47;;;;;;;20.05;64.64;101153.34;5072323;28;20233;-80
2023/10/01 09:13:20;;;;;;;1.03;1.03;;;;;;;20.04;64.76;101165.59;5071059;28;20236;-80
2023/10/01 09:15:47;;;;;;;1.00;1.00;;;;;;;20.25;64.24;101174.44;5071196;28;20182;-81
2023/10/01 09:18:12;;;;;;;1.47;1.10;;;;;;;20.13;64.17;101166.25;5072520;28;20257;-81
2023/10/01 09:20:42;;;;;;;1.30;0.90;;;;;;;20.41;64.06;101183.63;5071779;28;20304;-81
2023/10/01 09:23:08;;;;;;;0.60;0.43;;;;;;;20.34;63.72;101179.81;5071281;28;20245;-81
2023/10/01 09:25:34;;;;;;;2.97;1.93;;;;;;;20.43;63.94;101170.19;5071205;28;20190;-80
2023/10/01 09:28:04;;;;;;;0.00;0.00;;;;;;;20.38;63.92;101175.16;5072526;28;20577;-81
2023/10/01 09:30:35;;;;;;;0.63;0.63;;;;;;;20.12;64.21;101162.66;5070929;28;20668;-81
2023/10/01 09:33:14;;;;;;;1.67;1.57;;;;;;;20.48;63.82;101174.66;5070580;28;20341;-81
2023/10/01 09:35:49;;;;;;;1.07;0.97;;;;;;;20.64;63.51;101182.94;5072455;28;20178;-80
2023/10/01 09:38:18;;;;;;;0.60;0.50;;;;;;;20.49;63.75;101174.28;5072166;28;20231;-82
2023/10/01 09:40:46;;;;;;;0.00;0.00;;;;;;;20.60;64.08;101177.31;5070915;28;20182;-81
2023/10/01 09:43:19;;;;;;;5.40;1.43;;;;;;;20.61;63.71;101159.50;5072236;28;20214;-81
2023/10/01 09:45:49;;;;;;;1.63;1.43;;;;;;;20.81;63.27;101176.97;5072661;28;20175;-81
2023/10/01 09:48:37;;;;;;;3.70;0.57;;;;;;;20.64;63.59;101178.19;5072613;28;20175;-82
2023/10/01 09:51:15;;;;;;;0.67;0.63;;;;;;;20.98;63.54;101198.81;5072673;28;20178;-81
2023/10/01 09:53:47;;;;;;;0.43;0.40;;;;;;;21.18;62.58;101196.84;5072233;28;20202;-80
2023/10/01 09:56:14;;;;;;;1.07;0.43;;;;;;;21.34;61.66;101189.28;5072273;28;20609;-81
2023/10/01 09:58:46;;;;;;;1.63;1.53;;;;;;;21.23;61.77;101176.28;5071836;28;20246;-82
2023/10/01 10:01:13;;;;;;;1.13;1.13;;;;;;;21.61;61.83;101209.69;5070263;28;20178;-81
2023/10/01 10:03:42;;;;;;;4.63;1.17;;;;;;;21.65;61.24;101201.41;5072085;28;20194;-81
2023/10/01 10:06:09;;;;;;;0.30;0.30;;;;;;;21.42;61.29;101183.88;5071720;28;20236;-80
2023/10/01 10:08:35;;;;;;;1.57;1.27;;;;;;;21.41;62.36;101196.13;5073162;28;20253;-82
2023/10/01 10:11:02;;;;;;;6.20;1.73;;;;;;;21.18;61.76;101177.41;5074176;28;20220;-82
2023/10/01 10:13:48;;;;;;;3.13;1.93;;;;;;;21.57;61.48;101196.88;5074126;28;20256;-83
2023/10/01 10:19:09;;;;;;;1.20;1.20;;;;;;;21.62;61.61;101200.16;5074335;28;20240;-82
2023/10/01 10:24:35;;;;;;;0.00;0.00;;;;;;;22.33;60.68;101209.00;5073939;28;20344;-82
2023/10/01 10:27:07;;;;;;;0.30;0.30;;;;;;;22.52;60.09;101194.19;5072443;28;20186;-82
2023/10/01 10:29:56;;;;;;;0.53;0.53;;;;;;;22.61;59.25;101191.16;5065128;28;20182;-82
2023/10/01 10:32:26;;;;;;;1.10;0.83;;;;;;;22.90;59.72;101209.13;5072728;28;20181;-82
2023/10/01 10:35:04;;;;;;;1.40;0.67;;;;;;;23.21;58.86;101205.94;5073035;28;20213;-82
2023/10/01 10:37:35;;;;;;;1.10;1.00;;;;;;;22.70;59.14;101172.16;5071709;28;20554;-82
2023/10/01 10:42:57;;;;;;;0.73;0.60;;;;;;;22.69;60.13;101178.91;5072506;28;20517;-81
2023/10/01 10:45:24;;;;;;;0.80;0.80;;;;;;;22.52;60.07;101158.78;5071352;28;20285;-81
2023/10/01 10:48:01;;;;;;;1.60;1.50;;;;;;;22.49;60.39;101158.72;5071337;28;20182;-80
2023/10/01 10:50:58;;;;;;;0.43;0.43;;;;;;;22.43;60.43;101163.84;5071139;28;20182;-82
2023/10/01 10:53:25;;;;;;;2.83;1.53;;;;;;;22.34;61.04;101166.06;5072408;28;20228;-82
2023/10/01 10:56:06;;;;;;;1.47;1.33;;;;;;;22.56;61.04;101170.78;5072583;28;20548;-82
2023/10/01 10:59:01;;;;;;;1.83;1.70;;;;;;;22.43;60.96;101154.69;5071279;28;20183;-82
2023/10/01 11:01:27;;;;;;;0.97;0.97;;;;;;;22.33;61.31;101158.88;5071333;28;20175;-81
2023/10/01 11:03:57;;;;;;;0.00;0.00;;;;;;;22.71;60.77;101170.97;5071068;28;20202;-80
2023/10/01 11:06:29;;;;;;;2.47;1.80;;;;;;;22.71;61.50;101180.16;5069696;28;20293;-80
2023/10/01 11:08:55;;;;;;;1.80;1.43;;;;;;;22.70;60.51;101149.88;5070535;28;20701;-81
2023/10/01 11:11:24;;;;;;;1.10;1.10;;;;;;;22.87;60.00;101165.28;5073018;28;20187;-80
2023/10/01 11:14:02;;;;;;;4.33;1.23;;;;;;;22.60;60.68;101150.53;5074628;28;20581;-81
2023/10/01 11:16:38;;;;;;;1.93;1.20;;;;;;;22.33;61.28;101130.25;5074755;28;20182;-82
2023/10/01 11:19:14;;;;;;;1.17;1.17;;;;;;;22.65;61.29;101156.59;5074987;28;20648;-81
2023/10/01 11:22:00;;;;;;;1.20;0.80;;;;;;;22.83;61.18;101157.66;5074225;28;20269;-81
2023/10/01 11:24:31;;;;;;;0.63;0.10;;;;;;;23.42;60.75;101186.66;5074937;28;20743;-81
2023/10/01 11:27:25;;;;;;;4.30;1.67;;;;;;;23.12;60.70;101166.38;5074464;28;20266;-81
2023/10/01 11:29:57;;;;;;;0.70;0.70;;;;;;;23.17;60.71;101165.28;5074713;28;20213;-82
2023/10/01 11:35:31;;;;;;;2.63;1.17;;;;;;;23.28;59.33;101155.03;5074455;28;20209;-81
2023/10/01 11:38:20;;;;;;;7.83;0.67;;;;;;;23.66;59.79;101188.19;5074447;28;20546;-81
2023/10/01 11:43:59;;;;;;;0.10;0.10;;;;;;;23.74;58.32;101145.22;5074910;28;20205;-81
2023/10/01 11:46:29;;;;;;;6.80;1.73;;;;;;;23.66;59.32;101140.75;5073138;28;20186;-81
2023/10/01 11:49:15;;;;;;;1.83;0.93;;;;;;;23.79;58.32;101151.63;5073213;28;20186;-81
2023/10/01 11:51:45;;;;;;;3.43;2.90;;;;;;;23.39;59.61;101139.22;5074205;28;20171;-81
2023/10/01 11:54:18;;;;;;;0.10;0.10;;;;;;;23.85;59.42;101155.66;5072818;28;20579;-81
2023/10/01 11:57:04;;;;;;;0.00;0.00;;;;;;;23.93;60.00;101172.09;5073287;28;20197;-79
2023/10/01 11:59:31;;;;;;;0.87;0.77;;;;;;;23.86;59.08;101134.94;5073644;28;20251;-80
2023/10/01 12:02:15;;;;;;;5.37;1.73;;;;;;;23.69;58.83;101114.84;5073842;28;20202;-81
2023/10/01 12:04:43;;;;;;;8.07;1.30;;;;;;;23.96;59.09;101131.44;5073020;28;20607;-81
2023/10/01 12:07:16;;;;;;;0.10;0.10;;;;;;;24.25;58.30;101136.06;5072876;28;20182;-82
2023/10/01 12:09:50;;;;;;;1.30;0.90;;;;;;;23.92;58.73;101125.03;5074099;28;20183;-79
2023/10/01 12:12:21;;;;;;;4.43;0.67;;;;;;;24.07;59.02;101143.50;5072111;28;20178;-82
2023/10/01 12:14:53;;;;;;;2.30;1.00;;;;;;;23.76;58.66;101105.75;5072608;28;20214;-82
2023/10/01 12:17:28;;;;;;;5.37;1.03;;;;;;;23.86;58.32;101112.59;5072631;28;20240;-81
2023/10/01 12:19:57;;;;;;;1.60;1.40;;;;;;;23.86;58.56;101109.81;5073505;28;20430;-82
2023/10/01 12:22:25;;;;;;;4.57;0.73;;;;;;;23.83;58.89;101108.59;5071290;28;20285;-82
2023/10/01 12:24:58;;;;;;;4.87;2.87;;;;;;;23.63;59.23;101076.53;5072235;28;20218;-81
2023/10/01 12:27:38;;;;;;;0.53;0.53;;;;;;;23.67;59.03;101085.75;5072263;28;20189;-81
2023/10/01 12:30:11;;;;;;;0.80;0.80;;;;;;;23.85;59.39;101102.63;5073397;28;20231;-82
2023/10/01 12:32:42;;;;;;;1.97;1.87;;;;;;;24.21;58.80;101117.69;5073325;28;20253;-82